sensor_id;sensor_type;location;lat;lon;timestamp;P1;durP1;ratioP1;P2;durP2;ratioP2
18046;SDS011;9148;51.454;13.862;2022-07-06T00:01:18;1.30;;;0.85;;
18046;SDS011;9148;51.454;13.862;2022-07-06T00:03:45;0.90;;;0.90;;
18046;SDS011;9148;51.454;13.862;2022-07-06T00:06:10;1.27;;;1.15;;
18046;SDS011;9148;51.454;13.862;2022-07-06T00:08:37;1.05;;;0.95;;
18046;SDS011;9148;51.454;13.862;2022-07-06T00:11:03;1.73;;;1.15;;
18046;SDS011;9148;51.454;13.862;2022-07-06T00:13:30;1.27;;;1.17;;
18046;SDS011;9148;51.454;13.862;2022-07-06T00:15:56;2.13;;;1.50;;
18046;SDS011;9148;51.454;13.862;2022-07-06T00:18:21;1.20;;;1.10;;
18046;SDS011;9148;51.454;13.862;2022-07-06T00:20:47;2.05;;;1.60;;
18046;SDS011;9148;51.454;13.862;2022-07-06T00:23:13;2.80;;;1.27;;
18046;SDS011;9148;51.454;13.862;2022-07-06T00:25:39;1.15;;;1.05;;
18046;SDS011;9148;51.454;13.862;2022-07-06T00:28:04;1.52;;;1.35;;
18046;SDS011;9148;51.454;13.862;2022-07-06T00:30:30;1.63;;;1.43;;
18046;SDS011;9148;51.454;13.862;2022-07-06T00:32:55;1.50;;;1.13;;
18046;SDS011;9148;51.454;13.862;2022-07-06T00:35:23;2.03;;;1.23;;
18046;SDS011;9148;51.454;13.862;2022-07-06T00:37:52;1.75;;;1.52;;
18046;SDS011;9148;51.454;13.862;2022-07-06T00:40:18;1.42;;;1.33;;
18046;SDS011;9148;51.454;13.862;2022-07-06T00:42:45;1.63;;;1.40;;
18046;SDS011;9148;51.454;13.862;2022-07-06T00:45:12;3.08;;;1.95;;
18046;SDS011;9148;51.454;13.862;2022-07-06T00:47:39;2.05;;;1.42;;
18046;SDS011;9148;51.454;13.862;2022-07-06T00:50:09;2.47;;;1.55;;
18046;SDS011;9148;51.454;13.862;2022-07-06T00:52:40;3.50;;;1.50;;
18046;SDS011;9148;51.454;13.862;2022-07-06T00:55:19;1.43;;;1.30;;
18046;SDS011;9148;51.454;13.862;2022-07-06T00:57:51;2.35;;;2.10;;
18046;SDS011;9148;51.454;13.862;2022-07-06T01:00:18;2.10;;;1.53;;
18046;SDS011;9148;51.454;13.862;2022-07-06T01:02:47;1.53;;;1.20;;
18046;SDS011;9148;51.454;13.862;2022-07-06T01:05:13;1.80;;;1.67;;
18046;SDS011;9148;51.454;13.862;2022-07-06T01:07:41;1.52;;;1.42;;
18046;SDS011;9148;51.454;13.862;2022-07-06T01:10:09;2.58;;;1.80;;
18046;SDS011;9148;51.454;13.862;2022-07-06T01:12:37;1.50;;;1.40;;
18046;SDS011;9148;51.454;13.862;2022-07-06T01:15:06;1.67;;;1.53;;
18046;SDS011;9148;51.454;13.862;2022-07-06T01:17:35;1.90;;;1.80;;
18046;SDS011;9148;51.454;13.862;2022-07-06T01:20:22;1.10;;;1.00;;
18046;SDS011;9148;51.454;13.862;2022-07-06T01:22:50;3.67;;;1.53;;
18046;SDS011;9148;51.454;13.862;2022-07-06T01:25:18;1.63;;;1.40;;
18046;SDS011;9148;51.454;13.862;2022-07-06T01:27:44;4.45;;;1.73;;
18046;SDS011;9148;51.454;13.862;2022-07-06T01:30:12;2.30;;;1.67;;
18046;SDS011;9148;51.454;13.862;2022-07-06T01:32:40;1.40;;;1.30;;
18046;SDS011;9148;51.454;13.862;2022-07-06T01:35:07;1.47;;;1.20;;
18046;SDS011;9148;51.454;13.862;2022-07-06T01:37:35;1.67;;;1.13;;
18046;SDS011;9148;51.454;13.862;2022-07-06T01:40:02;1.10;;;1.10;;
18046;SDS011;9148;51.454;13.862;2022-07-06T01:42:31;1.63;;;1.53;;
18046;SDS011;9148;51.454;13.862;2022-07-06T01:44:57;2.00;;;1.30;;
18046;SDS011;9148;51.454;13.862;2022-07-06T01:47:23;2.00;;;1.80;;
18046;SDS011;9148;51.454;13.862;2022-07-06T01:49:48;2.30;;;1.77;;
18046;SDS011;9148;51.454;13.862;2022-07-06T01:52:14;1.00;;;1.00;;
18046;SDS011;9148;51.454;13.862;2022-07-06T01:54:40;2.07;;;1.83;;
18046;SDS011;9148;51.454;13.862;2022-07-06T01:57:05;2.03;;;1.70;;
18046;SDS011;9148;51.454;13.862;2022-07-06T01:59:31;2.30;;;1.87;;
18046;SDS011;9148;51.454;13.862;2022-07-06T02:01:57;2.10;;;1.50;;
18046;SDS011;9148;51.454;13.862;2022-07-06T02:04:22;1.73;;;1.40;;
18046;SDS011;9148;51.454;13.862;2022-07-06T02:06:48;1.67;;;1.50;;
18046;SDS011;9148;51.454;13.862;2022-07-06T02:09:14;1.77;;;1.67;;
18046;SDS011;9148;51.454;13.862;2022-07-06T02:11:41;1.27;;;1.20;;
18046;SDS011;9148;51.454;13.862;2022-07-06T02:14:07;2.80;;;1.67;;
18046;SDS011;9148;51.454;13.862;2022-07-06T02:16:33;1.93;;;1.83;;
18046;SDS011;9148;51.454;13.862;2022-07-06T02:18:58;1.73;;;1.53;;
18046;SDS011;9148;51.454;13.862;2022-07-06T02:21:24;1.80;;;1.70;;
18046;SDS011;9148;51.454;13.862;2022-07-06T02:23:50;1.60;;;1.50;;
18046;SDS011;9148;51.454;13.862;2022-07-06T02:26:15;1.50;;;1.17;;
18046;SDS011;9148;51.454;13.862;2022-07-06T02:28:41;3.00;;;2.13;;
18046;SDS011;9148;51.454;13.862;2022-07-06T02:31:07;1.90;;;1.17;;
18046;SDS011;9148;51.454;13.862;2022-07-06T02:33:32;1.70;;;1.60;;
18046;SDS011;9148;51.454;13.862;2022-07-06T02:35:58;1.93;;;1.53;;
18046;SDS011;9148;51.454;13.862;2022-07-06T02:38:24;1.67;;;1.47;;
18046;SDS011;9148;51.454;13.862;2022-07-06T02:40:50;1.73;;;1.57;;
18046;SDS011;9148;51.454;13.862;2022-07-06T02:43:15;2.40;;;1.33;;
18046;SDS011;9148;51.454;13.862;2022-07-06T02:45:41;1.70;;;1.60;;
18046;SDS011;9148;51.454;13.862;2022-07-06T02:48:07;1.80;;;1.70;;
18046;SDS011;9148;51.454;13.862;2022-07-06T02:50:32;1.80;;;1.70;;
18046;SDS011;9148;51.454;13.862;2022-07-06T02:52:58;2.20;;;1.87;;
18046;SDS011;9148;51.454;13.862;2022-07-06T02:55:25;2.37;;;2.00;;
18046;SDS011;9148;51.454;13.862;2022-07-06T02:57:51;1.73;;;1.63;;
18046;SDS011;9148;51.454;13.862;2022-07-06T03:00:17;2.20;;;2.00;;
18046;SDS011;9148;51.454;13.862;2022-07-06T03:02:42;3.53;;;1.67;;
18046;SDS011;9148;51.454;13.862;2022-07-06T03:05:08;3.07;;;1.10;;
18046;SDS011;9148;51.454;13.862;2022-07-06T03:07:34;1.77;;;1.67;;
18046;SDS011;9148;51.454;13.862;2022-07-06T03:09:59;2.47;;;1.87;;
18046;SDS011;9148;51.454;13.862;2022-07-06T03:12:25;3.13;;;1.80;;
18046;SDS011;9148;51.454;13.862;2022-07-06T03:14:51;2.50;;;2.30;;
18046;SDS011;9148;51.454;13.862;2022-07-06T03:17:16;1.50;;;1.40;;
18046;SDS011;9148;51.454;13.862;2022-07-06T03:19:42;1.80;;;1.50;;
18046;SDS011;9148;51.454;13.862;2022-07-06T03:22:08;2.67;;;2.20;;
18046;SDS011;9148;51.454;13.862;2022-07-06T03:24:34;2.37;;;1.80;;
18046;SDS011;9148;51.454;13.862;2022-07-06T03:26:59;1.77;;;1.47;;
18046;SDS011;9148;51.454;13.862;2022-07-06T03:29:25;2.90;;;1.80;;
18046;SDS011;9148;51.454;13.862;2022-07-06T03:31:51;2.33;;;2.13;;
18046;SDS011;9148;51.454;13.862;2022-07-06T03:34:16;1.97;;;1.70;;
18046;SDS011;9148;51.454;13.862;2022-07-06T03:36:42;2.13;;;1.67;;
18046;SDS011;9148;51.454;13.862;2022-07-06T03:39:08;1.80;;;1.60;;
18046;SDS011;9148;51.454;13.862;2022-07-06T03:41:33;3.17;;;2.03;;
18046;SDS011;9148;51.454;13.862;2022-07-06T03:43:59;3.30;;;2.07;;
18046;SDS011;9148;51.454;13.862;2022-07-06T03:46:25;2.17;;;1.93;;
18046;SDS011;9148;51.454;13.862;2022-07-06T03:48:50;2.50;;;2.30;;
18046;SDS011;9148;51.454;13.862;2022-07-06T03:51:16;2.53;;;1.67;;
18046;SDS011;9148;51.454;13.862;2022-07-06T03:53:42;2.43;;;1.83;;
18046;SDS011;9148;51.454;13.862;2022-07-06T03:56:08;1.57;;;1.47;;
18046;SDS011;9148;51.454;13.862;2022-07-06T03:58:53;3.57;;;1.93;;
18046;SDS011;9148;51.454;13.862;2022-07-06T04:01:19;2.00;;;1.83;;
18046;SDS011;9148;51.454;13.862;2022-07-06T04:03:45;2.10;;;1.67;;
18046;SDS011;9148;51.454;13.862;2022-07-06T04:06:11;1.77;;;1.60;;
18046;SDS011;9148;51.454;13.862;2022-07-06T04:08:36;2.33;;;1.83;;
18046;SDS011;9148;51.454;13.862;2022-07-06T04:11:02;5.00;;;2.10;;
18046;SDS011;9148;51.454;13.862;2022-07-06T04:13:28;2.50;;;2.30;;
18046;SDS011;9148;51.454;13.862;2022-07-06T04:15:54;1.97;;;1.87;;
18046;SDS011;9148;51.454;13.862;2022-07-06T04:18:19;3.07;;;2.47;;
18046;SDS011;9148;51.454;13.862;2022-07-06T04:20:45;2.20;;;2.00;;
18046;SDS011;9148;51.454;13.862;2022-07-06T04:23:11;3.60;;;2.33;;
18046;SDS011;9148;51.454;13.862;2022-07-06T04:25:37;2.43;;;2.23;;
18046;SDS011;9148;51.454;13.862;2022-07-06T04:28:02;2.20;;;2.00;;
18046;SDS011;9148;51.454;13.862;2022-07-06T04:30:28;2.60;;;2.00;;
18046;SDS011;9148;51.454;13.862;2022-07-06T04:32:54;2.60;;;2.30;;
18046;SDS011;9148;51.454;13.862;2022-07-06T04:35:20;3.13;;;2.30;;
18046;SDS011;9148;51.454;13.862;2022-07-06T04:37:46;1.63;;;1.47;;
18046;SDS011;9148;51.454;13.862;2022-07-06T04:40:12;3.37;;;2.23;;
18046;SDS011;9148;51.454;13.862;2022-07-06T04:42:39;2.13;;;1.50;;
18046;SDS011;9148;51.454;13.862;2022-07-06T04:45:05;1.40;;;1.30;;
18046;SDS011;9148;51.454;13.862;2022-07-06T04:47:31;1.47;;;1.37;;
18046;SDS011;9148;51.454;13.862;2022-07-06T04:49:57;1.83;;;1.70;;
18046;SDS011;9148;51.454;13.862;2022-07-06T04:52:22;2.67;;;1.80;;
18046;SDS011;9148;51.454;13.862;2022-07-06T04:54:48;2.97;;;1.98;;
18046;SDS011;9148;51.454;13.862;2022-07-06T04:57:14;1.60;;;1.50;;
18046;SDS011;9148;51.454;13.862;2022-07-06T04:59:39;1.65;;;1.33;;
18046;SDS011;9148;51.454;13.862;2022-07-06T05:02:05;1.20;;;1.10;;
18046;SDS011;9148;51.454;13.862;2022-07-06T05:04:31;1.42;;;1.33;;
18046;SDS011;9148;51.454;13.862;2022-07-06T05:06:57;2.25;;;1.38;;
18046;SDS011;9148;51.454;13.862;2022-07-06T05:09:23;2.53;;;1.52;;
18046;SDS011;9148;51.454;13.862;2022-07-06T05:11:49;1.90;;;1.38;;
18046;SDS011;9148;51.454;13.862;2022-07-06T05:14:14;1.10;;;1.02;;
18046;SDS011;9148;51.454;13.862;2022-07-06T05:16:40;2.55;;;1.45;;
18046;SDS011;9148;51.454;13.862;2022-07-06T05:19:06;1.52;;;1.25;;
18046;SDS011;9148;51.454;13.862;2022-07-06T05:21:31;1.77;;;1.08;;
18046;SDS011;9148;51.454;13.862;2022-07-06T05:23:57;1.25;;;1.15;;
18046;SDS011;9148;51.454;13.862;2022-07-06T05:26:23;2.20;;;1.25;;
18046;SDS011;9148;51.454;13.862;2022-07-06T05:28:48;1.70;;;1.50;;
18046;SDS011;9148;51.454;13.862;2022-07-06T05:31:14;1.23;;;1.13;;
18046;SDS011;9148;51.454;13.862;2022-07-06T05:33:40;0.80;;;0.80;;
18046;SDS011;9148;51.454;13.862;2022-07-06T05:36:06;0.95;;;0.85;;
18046;SDS011;9148;51.454;13.862;2022-07-06T05:38:32;4.65;;;0.90;;
18046;SDS011;9148;51.454;13.862;2022-07-06T05:40:58;2.83;;;0.93;;
18046;SDS011;9148;51.454;13.862;2022-07-06T05:43:24;1.00;;;0.77;;
18046;SDS011;9148;51.454;13.862;2022-07-06T05:45:50;1.23;;;1.13;;
18046;SDS011;9148;51.454;13.862;2022-07-06T05:48:16;0.75;;;0.75;;
18046;SDS011;9148;51.454;13.862;2022-07-06T05:51:00;0.70;;;0.65;;
18046;SDS011;9148;51.454;13.862;2022-07-06T05:53:26;0.65;;;0.52;;
18046;SDS011;9148;51.454;13.862;2022-07-06T05:55:51;0.70;;;0.70;;
18046;SDS011;9148;51.454;13.862;2022-07-06T05:58:17;0.60;;;0.60;;
18046;SDS011;9148;51.454;13.862;2022-07-06T06:00:43;1.02;;;0.40;;
18046;SDS011;9148;51.454;13.862;2022-07-06T06:03:09;0.70;;;0.70;;
18046;SDS011;9148;51.454;13.862;2022-07-06T06:05:34;0.60;;;0.50;;
18046;SDS011;9148;51.454;13.862;2022-07-06T06:08:00;0.50;;;0.50;;
18046;SDS011;9148;51.454;13.862;2022-07-06T06:10:26;0.40;;;0.40;;
18046;SDS011;9148;51.454;13.862;2022-07-06T06:12:52;0.43;;;0.43;;
18046;SDS011;9148;51.454;13.862;2022-07-06T06:15:18;1.95;;;0.75;;
18046;SDS011;9148;51.454;13.862;2022-07-06T06:17:43;1.10;;;0.55;;
18046;SDS011;9148;51.454;13.862;2022-07-06T06:20:10;0.73;;;0.57;;
18046;SDS011;9148;51.454;13.862;2022-07-06T06:22:45;1.55;;;0.82;;
18046;SDS011;9148;51.454;13.862;2022-07-06T06:25:13;0.28;;;0.22;;
18046;SDS011;9148;51.454;13.862;2022-07-06T06:27:44;0.28;;;0.28;;
18046;SDS011;9148;51.454;13.862;2022-07-06T06:30:10;0.90;;;0.50;;
18046;SDS011;9148;51.454;13.862;2022-07-06T06:32:38;0.52;;;0.50;;
18046;SDS011;9148;51.454;13.862;2022-07-06T06:35:04;0.73;;;0.43;;
18046;SDS011;9148;51.454;13.862;2022-07-06T06:37:31;0.20;;;0.20;;
18046;SDS011;9148;51.454;13.862;2022-07-06T06:39:59;0.45;;;0.45;;
18046;SDS011;9148;51.454;13.862;2022-07-06T06:42:25;1.23;;;0.52;;
18046;SDS011;9148;51.454;13.862;2022-07-06T06:44:50;0.40;;;0.40;;
18046;SDS011;9148;51.454;13.862;2022-07-06T06:47:16;0.57;;;0.57;;
18046;SDS011;9148;51.454;13.862;2022-07-06T06:49:44;0.30;;;0.30;;
18046;SDS011;9148;51.454;13.862;2022-07-06T06:52:09;0.47;;;0.45;;
18046;SDS011;9148;51.454;13.862;2022-07-06T06:54:35;0.43;;;0.43;;
18046;SDS011;9148;51.454;13.862;2022-07-06T06:57:01;1.02;;;0.73;;
18046;SDS011;9148;51.454;13.862;2022-07-06T06:59:26;0.75;;;0.50;;
18046;SDS011;9148;51.454;13.862;2022-07-06T07:01:52;0.45;;;0.35;;
18046;SDS011;9148;51.454;13.862;2022-07-06T07:04:18;0.75;;;0.63;;
18046;SDS011;9148;51.454;13.862;2022-07-06T07:06:43;0.38;;;0.38;;
18046;SDS011;9148;51.454;13.862;2022-07-06T07:09:09;0.55;;;0.47;;
18046;SDS011;9148;51.454;13.862;2022-07-06T07:11:34;0.28;;;0.28;;
18046;SDS011;9148;51.454;13.862;2022-07-06T07:14:00;0.20;;;0.20;;
18046;SDS011;9148;51.454;13.862;2022-07-06T07:16:27;0.47;;;0.45;;
18046;SDS011;9148;51.454;13.862;2022-07-06T07:18:52;0.35;;;0.35;;
18046;SDS011;9148;51.454;13.862;2022-07-06T07:21:18;0.40;;;0.40;;
18046;SDS011;9148;51.454;13.862;2022-07-06T07:23:44;0.20;;;0.20;;
18046;SDS011;9148;51.454;13.862;2022-07-06T07:26:09;2.97;;;1.08;;
18046;SDS011;9148;51.454;13.862;2022-07-06T07:28:35;3.13;;;0.70;;
18046;SDS011;9148;51.454;13.862;2022-07-06T07:31:01;0.50;;;0.40;;
18046;SDS011;9148;51.454;13.862;2022-07-06T07:33:27;0.10;;;0.10;;
18046;SDS011;9148;51.454;13.862;2022-07-06T07:35:53;0.30;;;0.30;;
18046;SDS011;9148;51.454;13.862;2022-07-06T07:38:19;0.80;;;0.40;;
18046;SDS011;9148;51.454;13.862;2022-07-06T07:40:45;0.70;;;0.30;;
18046;SDS011;9148;51.454;13.862;2022-07-06T07:43:10;1.27;;;0.38;;
18046;SDS011;9148;51.454;13.862;2022-07-06T07:45:36;0.30;;;0.30;;
18046;SDS011;9148;51.454;13.862;2022-07-06T07:48:02;0.68;;;0.52;;
18046;SDS011;9148;51.454;13.862;2022-07-06T07:50:29;0.40;;;0.22;;
18046;SDS011;9148;51.454;13.862;2022-07-06T07:52:54;0.55;;;0.40;;
18046;SDS011;9148;51.454;13.862;2022-07-06T07:55:20;0.60;;;0.40;;
18046;SDS011;9148;51.454;13.862;2022-07-06T07:57:46;1.15;;;0.65;;
18046;SDS011;9148;51.454;13.862;2022-07-06T08:00:12;0.73;;;0.57;;
18046;SDS011;9148;51.454;13.862;2022-07-06T08:02:39;0.45;;;0.30;;
18046;SDS011;9148;51.454;13.862;2022-07-06T08:05:05;0.30;;;0.30;;
18046;SDS011;9148;51.454;13.862;2022-07-06T08:07:31;0.85;;;0.50;;
18046;SDS011;9148;51.454;13.862;2022-07-06T08:09:57;0.47;;;0.40;;
18046;SDS011;9148;51.454;13.862;2022-07-06T08:12:23;0.45;;;0.30;;
18046;SDS011;9148;51.454;13.862;2022-07-06T08:14:49;0.30;;;0.30;;
18046;SDS011;9148;51.454;13.862;2022-07-06T08:17:15;0.30;;;0.30;;
18046;SDS011;9148;51.454;13.862;2022-07-06T08:19:41;0.70;;;0.57;;
18046;SDS011;9148;51.454;13.862;2022-07-06T08:22:06;0.30;;;0.30;;
18046;SDS011;9148;51.454;13.862;2022-07-06T08:24:36;0.38;;;0.32;;
18046;SDS011;9148;51.454;13.862;2022-07-06T08:27:02;0.85;;;0.38;;
18046;SDS011;9148;51.454;13.862;2022-07-06T08:29:28;0.52;;;0.45;;
18046;SDS011;9148;51.454;13.862;2022-07-06T08:31:55;1.02;;;0.20;;
18046;SDS011;9148;51.454;13.862;2022-07-06T08:34:21;0.50;;;0.45;;
18046;SDS011;9148;51.454;13.862;2022-07-06T08:36:47;1.00;;;0.20;;
18046;SDS011;9148;51.454;13.862;2022-07-06T08:39:13;0.63;;;0.40;;
18046;SDS011;9148;51.454;13.862;2022-07-06T08:41:40;1.52;;;0.40;;
18046;SDS011;9148;51.454;13.862;2022-07-06T08:44:08;2.85;;;1.30;;
18046;SDS011;9148;51.454;13.862;2022-07-06T08:46:35;1.15;;;0.60;;
18046;SDS011;9148;51.454;13.862;2022-07-06T08:49:04;0.63;;;0.63;;
18046;SDS011;9148;51.454;13.862;2022-07-06T08:51:32;0.70;;;0.60;;
18046;SDS011;9148;51.454;13.862;2022-07-06T08:54:01;1.58;;;1.23;;
18046;SDS011;9148;51.454;13.862;2022-07-06T08:56:28;3.50;;;0.68;;
18046;SDS011;9148;51.454;13.862;2022-07-06T08:58:54;1.63;;;0.60;;
18046;SDS011;9148;51.454;13.862;2022-07-06T09:01:20;5.43;;;1.27;;
18046;SDS011;9148;51.454;13.862;2022-07-06T09:03:48;2.63;;;0.60;;
18046;SDS011;9148;51.454;13.862;2022-07-06T09:06:19;1.85;;;0.77;;
18046;SDS011;9148;51.454;13.862;2022-07-06T09:08:52;0.47;;;0.35;;
18046;SDS011;9148;51.454;13.862;2022-07-06T09:11:21;1.75;;;1.25;;
18046;SDS011;9148;51.454;13.862;2022-07-06T09:13:47;0.20;;;0.20;;
18046;SDS011;9148;51.454;13.862;2022-07-06T09:16:14;0.70;;;0.50;;
18046;SDS011;9148;51.454;13.862;2022-07-06T09:18:44;0.35;;;0.28;;
18046;SDS011;9148;51.454;13.862;2022-07-06T09:21:10;1.08;;;0.80;;
18046;SDS011;9148;51.454;13.862;2022-07-06T09:23:37;0.80;;;0.30;;
18046;SDS011;9148;51.454;13.862;2022-07-06T09:26:03;2.10;;;0.30;;
18046;SDS011;9148;51.454;13.862;2022-07-06T09:28:40;0.50;;;0.50;;
18046;SDS011;9148;51.454;13.862;2022-07-06T09:31:10;0.45;;;0.30;;
18046;SDS011;9148;51.454;13.862;2022-07-06T09:33:36;0.60;;;0.35;;
18046;SDS011;9148;51.454;13.862;2022-07-06T09:36:03;1.23;;;0.75;;
18046;SDS011;9148;51.454;13.862;2022-07-06T09:38:31;2.10;;;0.47;;
18046;SDS011;9148;51.454;13.862;2022-07-06T09:40:57;0.68;;;0.52;;
18046;SDS011;9148;51.454;13.862;2022-07-06T09:43:23;1.48;;;0.40;;
18046;SDS011;9148;51.454;13.862;2022-07-06T09:45:50;0.52;;;0.52;;
18046;SDS011;9148;51.454;13.862;2022-07-06T09:48:22;0.93;;;0.55;;
18046;SDS011;9148;51.454;13.862;2022-07-06T09:50:54;2.13;;;0.30;;
18046;SDS011;9148;51.454;13.862;2022-07-06T09:53:24;0.40;;;0.25;;
18046;SDS011;9148;51.454;13.862;2022-07-06T09:55:52;0.57;;;0.57;;
18046;SDS011;9148;51.454;13.862;2022-07-06T09:58:20;0.82;;;0.52;;
18046;SDS011;9148;51.454;13.862;2022-07-06T10:00:47;0.47;;;0.47;;
18046;SDS011;9148;51.454;13.862;2022-07-06T10:03:15;0.30;;;0.30;;
18046;SDS011;9148;51.454;13.862;2022-07-06T10:05:42;0.35;;;0.35;;
18046;SDS011;9148;51.454;13.862;2022-07-06T10:08:12;0.57;;;0.28;;
18046;SDS011;9148;51.454;13.862;2022-07-06T10:10:39;2.88;;;0.50;;
18046;SDS011;9148;51.454;13.862;2022-07-06T10:13:06;0.20;;;0.20;;
18046;SDS011;9148;51.454;13.862;2022-07-06T10:15:34;0.43;;;0.25;;
18046;SDS011;9148;51.454;13.862;2022-07-06T10:18:06;0.77;;;0.20;;
18046;SDS011;9148;51.454;13.862;2022-07-06T10:20:34;0.25;;;0.25;;
18046;SDS011;9148;51.454;13.862;2022-07-06T10:23:04;1.00;;;0.30;;
18046;SDS011;9148;51.454;13.862;2022-07-06T10:25:33;0.45;;;0.20;;
18046;SDS011;9148;51.454;13.862;2022-07-06T10:27:59;0.63;;;0.32;;
18046;SDS011;9148;51.454;13.862;2022-07-06T10:30:26;0.50;;;0.20;;
18046;SDS011;9148;51.454;13.862;2022-07-06T10:32:54;0.55;;;0.43;;
18046;SDS011;9148;51.454;13.862;2022-07-06T10:35:22;0.22;;;0.22;;
18046;SDS011;9148;51.454;13.862;2022-07-06T10:38:06;0.60;;;0.50;;
18046;SDS011;9148;51.454;13.862;2022-07-06T10:40:37;0.32;;;0.30;;
18046;SDS011;9148;51.454;13.862;2022-07-06T10:43:57;0.10;;;0.10;;
18046;SDS011;9148;51.454;13.862;2022-07-06T10:46:16;0.75;;;0.75;;
18046;SDS011;9148;51.454;13.862;2022-07-06T10:48:44;1.35;;;0.30;;
18046;SDS011;9148;51.454;13.862;2022-07-06T10:51:24;2.53;;;0.40;;
18046;SDS011;9148;51.454;13.862;2022-07-06T10:53:55;0.30;;;0.30;;
18046;SDS011;9148;51.454;13.862;2022-07-06T10:59:09;0.20;;;0.20;;
18046;SDS011;9148;51.454;13.862;2022-07-06T11:04:41;0.88;;;0.57;;
18046;SDS011;9148;51.454;13.862;2022-07-06T11:07:10;0.77;;;0.30;;
18046;SDS011;9148;51.454;13.862;2022-07-06T11:09:37;1.08;;;0.47;;
18046;SDS011;9148;51.454;13.862;2022-07-06T11:14:46;0.70;;;0.70;;
18046;SDS011;9148;51.454;13.862;2022-07-06T11:17:15;0.20;;;0.20;;
18046;SDS011;9148;51.454;13.862;2022-07-06T11:19:49;2.17;;;0.52;;
18046;SDS011;9148;51.454;13.862;2022-07-06T11:22:20;0.32;;;0.32;;
18046;SDS011;9148;51.454;13.862;2022-07-06T11:24:46;0.82;;;0.40;;
18046;SDS011;9148;51.454;13.862;2022-07-06T11:27:12;0.20;;;0.20;;
18046;SDS011;9148;51.454;13.862;2022-07-06T11:29:38;1.92;;;0.70;;
18046;SDS011;9148;51.454;13.862;2022-07-06T11:32:05;0.65;;;0.30;;
18046;SDS011;9148;51.454;13.862;2022-07-06T11:34:35;1.55;;;0.30;;
18046;SDS011;9148;51.454;13.862;2022-07-06T11:37:07;2.63;;;0.68;;
18046;SDS011;9148;51.454;13.862;2022-07-06T11:39:41;0.20;;;0.20;;
18046;SDS011;9148;51.454;13.862;2022-07-06T11:42:09;0.32;;;0.32;;
18046;SDS011;9148;51.454;13.862;2022-07-06T11:44:39;0.40;;;0.20;;
18046;SDS011;9148;51.454;13.862;2022-07-06T11:47:07;0.20;;;0.20;;
18046;SDS011;9148;51.454;13.862;2022-07-06T11:49:35;0.10;;;0.10;;
18046;SDS011;9148;51.454;13.862;2022-07-06T11:52:12;0.63;;;0.35;;
18046;SDS011;9148;51.454;13.862;2022-07-06T11:54:39;0.20;;;0.20;;
18046;SDS011;9148;51.454;13.862;2022-07-06T11:57:07;0.20;;;0.20;;
18046;SDS011;9148;51.454;13.862;2022-07-06T11:59:35;2.55;;;0.75;;
18046;SDS011;9148;51.454;13.862;2022-07-06T12:02:07;0.30;;;0.30;;
18046;SDS011;9148;51.454;13.862;2022-07-06T12:04:36;0.17;;;0.17;;
18046;SDS011;9148;51.454;13.862;2022-07-06T12:07:04;0.50;;;0.40;;
18046;SDS011;9148;51.454;13.862;2022-07-06T12:09:41;0.35;;;0.28;;
18046;SDS011;9148;51.454;13.862;2022-07-06T12:12:10;0.20;;;0.20;;
18046;SDS011;9148;51.454;13.862;2022-07-06T12:14:37;0.38;;;0.38;;
18046;SDS011;9148;51.454;13.862;2022-07-06T12:17:09;0.45;;;0.30;;
18046;SDS011;9148;51.454;13.862;2022-07-06T12:19:37;0.28;;;0.20;;
18046;SDS011;9148;51.454;13.862;2022-07-06T12:22:04;0.85;;;0.40;;
18046;SDS011;9148;51.454;13.862;2022-07-06T12:24:32;0.30;;;0.30;;
18046;SDS011;9148;51.454;13.862;2022-07-06T12:27:17;2.15;;;0.28;;
18046;SDS011;9148;51.454;13.862;2022-07-06T12:29:44;1.90;;;0.50;;
18046;SDS011;9148;51.454;13.862;2022-07-06T12:32:15;0.75;;;0.30;;
18046;SDS011;9148;51.454;13.862;2022-07-06T12:34:43;0.15;;;0.15;;
18046;SDS011;9148;51.454;13.862;2022-07-06T12:37:09;0.75;;;0.20;;
18046;SDS011;9148;51.454;13.862;2022-07-06T12:39:40;0.85;;;0.57;;
18046;SDS011;9148;51.454;13.862;2022-07-06T12:42:12;0.90;;;0.45;;
18046;SDS011;9148;51.454;13.862;2022-07-06T12:44:43;1.52;;;0.30;;
18046;SDS011;9148;51.454;13.862;2022-07-06T12:47:12;0.28;;;0.20;;
18046;SDS011;9148;51.454;13.862;2022-07-06T12:49:48;0.20;;;0.20;;
18046;SDS011;9148;51.454;13.862;2022-07-06T12:52:30;0.20;;;0.17;;
18046;SDS011;9148;51.454;13.862;2022-07-06T12:54:55;0.35;;;0.35;;
18046;SDS011;9148;51.454;13.862;2022-07-06T12:57:26;1.80;;;0.75;;
18046;SDS011;9148;51.454;13.862;2022-07-06T13:04:59;1.33;;;0.60;;
18046;SDS011;9148;51.454;13.862;2022-07-06T13:07:30;0.30;;;0.30;;
18046;SDS011;9148;51.454;13.862;2022-07-06T13:10:00;0.10;;;0.10;;
18046;SDS011;9148;51.454;13.862;2022-07-06T13:12:28;0.32;;;0.20;;
18046;SDS011;9148;51.454;13.862;2022-07-06T13:14:54;1.00;;;0.30;;
18046;SDS011;9148;51.454;13.862;2022-07-06T13:17:20;5.40;;;0.40;;
18046;SDS011;9148;51.454;13.862;2022-07-06T13:19:46;0.80;;;0.35;;
18046;SDS011;9148;51.454;13.862;2022-07-06T13:22:12;0.38;;;0.28;;
18046;SDS011;9148;51.454;13.862;2022-07-06T13:24:39;0.25;;;0.25;;
18046;SDS011;9148;51.454;13.862;2022-07-06T13:27:04;0.30;;;0.30;;
18046;SDS011;9148;51.454;13.862;2022-07-06T13:29:31;0.40;;;0.30;;
18046;SDS011;9148;51.454;13.862;2022-07-06T13:31:57;0.22;;;0.20;;
18046;SDS011;9148;51.454;13.862;2022-07-06T13:34:23;0.30;;;0.15;;
18046;SDS011;9148;51.454;13.862;2022-07-06T13:36:49;0.55;;;0.43;;
18046;SDS011;9148;51.454;13.862;2022-07-06T13:39:16;0.20;;;0.20;;
18046;SDS011;9148;51.454;13.862;2022-07-06T13:41:42;0.65;;;0.20;;
18046;SDS011;9148;51.454;13.862;2022-07-06T13:44:08;0.28;;;0.28;;
18046;SDS011;9148;51.454;13.862;2022-07-06T13:46:35;3.10;;;0.32;;
18046;SDS011;9148;51.454;13.862;2022-07-06T13:49:02;1.65;;;0.20;;
18046;SDS011;9148;51.454;13.862;2022-07-06T13:51:29;0.22;;;0.20;;
18046;SDS011;9148;51.454;13.862;2022-07-06T13:53:57;2.28;;;0.28;;
18046;SDS011;9148;51.454;13.862;2022-07-06T13:56:24;0.13;;;0.13;;
18046;SDS011;9148;51.454;13.862;2022-07-06T13:58:50;1.10;;;0.45;;
18046;SDS011;9148;51.454;13.862;2022-07-06T14:01:16;0.75;;;0.30;;
18046;SDS011;9148;51.454;13.862;2022-07-06T14:03:42;0.43;;;0.43;;
18046;SDS011;9148;51.454;13.862;2022-07-06T14:06:08;0.13;;;0.13;;
18046;SDS011;9148;51.454;13.862;2022-07-06T14:08:35;0.22;;;0.17;;
18046;SDS011;9148;51.454;13.862;2022-07-06T14:11:01;0.17;;;0.10;;
18046;SDS011;9148;51.454;13.862;2022-07-06T14:13:28;0.20;;;0.20;;
18046;SDS011;9148;51.454;13.862;2022-07-06T14:15:55;0.20;;;0.20;;
18046;SDS011;9148;51.454;13.862;2022-07-06T14:18:20;1.08;;;0.50;;
18046;SDS011;9148;51.454;13.862;2022-07-06T14:20:47;0.10;;;0.10;;
18046;SDS011;9148;51.454;13.862;2022-07-06T14:23:14;0.20;;;0.20;;
18046;SDS011;9148;51.454;13.862;2022-07-06T14:25:41;0.85;;;0.47;;
18046;SDS011;9148;51.454;13.862;2022-07-06T14:28:07;0.98;;;0.40;;
18046;SDS011;9148;51.454;13.862;2022-07-06T14:30:34;0.20;;;0.20;;
18046;SDS011;9148;51.454;13.862;2022-07-06T14:33:04;0.30;;;0.13;;
18046;SDS011;9148;51.454;13.862;2022-07-06T14:35:37;0.57;;;0.30;;
18046;SDS011;9148;51.454;13.862;2022-07-06T14:38:12;1.75;;;0.60;;
18046;SDS011;9148;51.454;13.862;2022-07-06T14:40:38;0.40;;;0.20;;
18046;SDS011;9148;51.454;13.862;2022-07-06T14:43:04;0.20;;;0.10;;
18046;SDS011;9148;51.454;13.862;2022-07-06T14:45:30;0.20;;;0.20;;
18046;SDS011;9148;51.454;13.862;2022-07-06T14:47:56;0.22;;;0.20;;
18046;SDS011;9148;51.454;13.862;2022-07-06T14:50:22;0.28;;;0.20;;
18046;SDS011;9148;51.454;13.862;2022-07-06T14:52:48;0.25;;;0.25;;
18046;SDS011;9148;51.454;13.862;2022-07-06T14:55:15;0.13;;;0.10;;
18046;SDS011;9148;51.454;13.862;2022-07-06T14:57:41;0.00;;;0.00;;
18046;SDS011;9148;51.454;13.862;2022-07-06T15:00:07;0.00;;;0.00;;
18046;SDS011;9148;51.454;13.862;2022-07-06T15:02:33;0.10;;;0.10;;